This is the latest recevied weather packets stored in our database for station/object OK1PHM-12. If no packets are shown the sender has not sent any weather packets the latest 10 day(s).
| Time | Temp. | Humidity | Pressure | Rain* | Wind** | Luminosity | Snow |
|---|---|---|---|---|---|---|---|
| 1777675008 | 10° C | 68% | 1027.3 hPa | - | - | - | - |
| 1777674108 | 10° C | 68% | 1027.3 hPa | - | - | - | - |
| 1777673206 | 10.56° C | 66% | 1027.4 hPa | - | - | - | - |
| 1777672305 | 11.11° C | 65% | 1027.4 hPa | - | - | - | - |
| 1777671404 | 11.11° C | 65% | 1027.4 hPa | - | - | - | - |
| 1777670504 | 11.11° C | 64% | 1027.2 hPa | - | - | - | - |
| 1777669603 | 11.11° C | 65% | 1027.3 hPa | - | - | - | - |
| 1777668702 | 11.67° C | 64% | 1027.2 hPa | - | - | - | - |
| 1777667801 | 11.67° C | 63% | 1027.2 hPa | - | - | - | - |
| 1777666900 | 12.22° C | 63% | 1027.2 hPa | - | - | - | - |
| 1777666000 | 12.78° C | 62% | 1027.2 hPa | - | - | - | - |
| 1777665099 | 12.78° C | 61% | 1027.2 hPa | - | - | - | - |
| 1777664198 | 13.33° C | 60% | 1027.1 hPa | - | - | - | - |
| 1777663297 | 13.89° C | 59% | 1027 hPa | - | - | - | - |
| 1777662396 | 14.44° C | 57% | 1026.9 hPa | - | - | - | - |
| 1777661495 | 15.56° C | 56% | 1026.9 hPa | - | - | - | - |
| 1777660595 | 16.67° C | 52% | 1026.8 hPa | - | - | - | - |
| 1777659694 | 17.22° C | 48% | 1026.6 hPa | - | - | - | - |
| 1777658793 | 17.78° C | 46% | 1026.5 hPa | - | - | - | - |
| 1777657892 | 18.89° C | 41% | 1026.3 hPa | - | - | - | - |
| 1777656991 | 19.44° C | 40% | 1026.2 hPa | - | - | - | - |
| 1777656090 | 20° C | 40% | 1026.2 hPa | - | - | - | - |
| 1777655189 | 20.56° C | 37% | 1026.1 hPa | - | - | - | - |
| 1777654288 | 21.11° C | 37% | 1026.3 hPa | - | - | - | - |
| 1777653387 | 21.11° C | 36% | 1026.3 hPa | - | - | - | - |
* Rain since midnight (hover to see other rain measurements)
** Current wind speed in m/s (hover to see current wind gust speed)